createdAt,value
2023-03-29T00:00:09.958Z,101067.00
2023-03-29T00:02:38.190Z,101090.00
2023-03-29T00:05:10.176Z,101052.00
2023-03-29T00:07:39.521Z,101076.00
2023-03-29T00:10:09.891Z,101071.00
2023-03-29T00:12:38.785Z,101063.00
2023-03-29T00:15:08.419Z,101060.00
2023-03-29T00:17:36.298Z,101050.00
2023-03-29T00:20:08.532Z,101044.00
2023-03-29T00:22:42.307Z,101062.00
2023-03-29T00:25:11.962Z,101047.00
2023-03-29T00:27:40.036Z,101052.00
2023-03-29T00:30:11.123Z,101038.00
2023-03-29T00:32:39.074Z,101038.00
2023-03-29T00:35:07.721Z,101040.00
2023-03-29T00:37:35.707Z,101037.00
2023-03-29T00:40:08.308Z,101033.00
2023-03-29T00:42:36.378Z,101041.00
2023-03-29T00:45:09.023Z,101030.00
2023-03-29T00:47:41.546Z,101032.00
2023-03-29T00:50:15.900Z,101033.00
2023-03-29T00:52:46.710Z,101032.00
2023-03-29T00:55:21.721Z,101033.00
2023-03-29T00:57:50.716Z,101025.00
2023-03-29T01:00:22.336Z,101016.00
2023-03-29T01:02:54.575Z,101020.00
2023-03-29T01:05:27.117Z,101009.00
2023-03-29T01:07:59.946Z,101008.00
2023-03-29T01:10:36.306Z,101006.00
2023-03-29T01:13:09.487Z,100999.00
2023-03-29T01:15:39.773Z,100999.00
2023-03-29T01:18:08.865Z,100969.00
2023-03-29T01:20:54.041Z,100986.00
2023-03-29T01:23:37.999Z,100987.00
2023-03-29T01:26:19.691Z,100982.00
2023-03-29T01:28:53.778Z,100984.00
2023-03-29T01:31:28.423Z,100967.00
2023-03-29T01:34:03.813Z,100961.00
2023-03-29T01:36:37.196Z,100976.00
2023-03-29T01:39:07.269Z,100978.00
2023-03-29T01:41:41.379Z,100958.00
2023-03-29T01:44:14.992Z,100960.00
2023-03-29T01:46:47.032Z,100972.00
2023-03-29T01:49:23.595Z,100963.00
2023-03-29T01:51:56.222Z,100946.00
2023-03-29T01:54:29.773Z,100955.00
2023-03-29T01:56:59.505Z,100957.00
2023-03-29T01:59:32.388Z,100923.00
2023-03-29T02:02:03.474Z,100965.00
2023-03-29T02:04:34.720Z,100963.00
2023-03-29T02:07:04.319Z,100948.00
2023-03-29T02:09:34.528Z,100947.00
2023-03-29T02:12:04.297Z,100944.00
2023-03-29T02:14:33.735Z,100949.00
2023-03-29T02:17:18.352Z,100932.00
2023-03-29T02:19:50.182Z,100929.00
2023-03-29T02:22:23.970Z,100939.00
2023-03-29T02:24:59.326Z,100929.00
2023-03-29T02:27:29.172Z,100938.00
2023-03-29T02:29:59.215Z,100922.00
2023-03-29T02:32:32.437Z,100925.00
2023-03-29T02:35:03.650Z,100930.00
2023-03-29T02:37:34.523Z,100922.00
2023-03-29T02:40:07.981Z,100911.00
2023-03-29T02:42:36.803Z,100920.00
2023-03-29T02:45:11.016Z,100919.00
2023-03-29T02:47:44.429Z,100922.00
2023-03-29T02:50:13.071Z,100924.00
2023-03-29T02:52:45.999Z,100915.00
2023-03-29T02:55:18.832Z,100923.00
2023-03-29T02:57:46.796Z,100897.00
2023-03-29T03:00:20.209Z,100917.00
2023-03-29T03:02:51.061Z,100900.00
2023-03-29T03:05:19.390Z,100889.00
2023-03-29T03:07:47.539Z,100904.00
2023-03-29T03:10:16.029Z,100889.00
2023-03-29T03:12:43.973Z,100888.00
2023-03-29T03:15:13.477Z,100878.00
2023-03-29T03:17:42.953Z,100883.00
2023-03-29T03:20:13.854Z,100899.00
2023-03-29T03:22:42.753Z,100898.00
2023-03-29T03:25:13.960Z,100874.00
2023-03-29T03:27:42.114Z,100891.00
2023-03-29T03:30:11.465Z,100892.00
2023-03-29T03:32:39.590Z,100874.00
2023-03-29T03:35:10.039Z,100868.00
2023-03-29T03:37:38.294Z,100882.00
2023-03-29T03:40:12.007Z,100876.00
2023-03-29T03:42:40.278Z,100880.00
2023-03-29T03:45:10.659Z,100869.00
2023-03-29T03:47:39.314Z,100878.00
2023-03-29T03:50:10.243Z,100879.00
2023-03-29T03:52:38.141Z,100873.00
2023-03-29T03:55:06.625Z,100853.00
2023-03-29T03:57:37.463Z,100861.00
2023-03-29T04:00:19.245Z,100865.00
2023-03-29T04:02:49.600Z,100846.00
2023-03-29T04:05:19.988Z,100846.00
2023-03-29T04:07:48.846Z,100845.00
2023-03-29T04:10:17.217Z,100839.00
2023-03-29T04:12:45.250Z,100850.00
2023-03-29T04:15:13.214Z,100826.00
2023-03-29T04:17:41.100Z,100844.00
2023-03-29T04:20:12.784Z,100825.00
2023-03-29T04:22:42.261Z,100835.00
2023-03-29T04:25:11.729Z,100834.00
2023-03-29T04:27:39.749Z,100836.00
2023-03-29T04:30:09.740Z,100832.00
2023-03-29T04:32:37.808Z,100818.00
2023-03-29T04:35:08.468Z,100828.00
2023-03-29T04:37:36.890Z,100839.00
2023-03-29T04:40:09.219Z,100843.00
2023-03-29T04:42:37.439Z,100824.00
2023-03-29T04:45:07.776Z,100831.00
2023-03-29T04:47:36.696Z,100833.00
2023-03-29T04:50:05.071Z,100814.00
2023-03-29T04:52:33.358Z,100819.00
2023-03-29T04:55:01.451Z,100828.00
2023-03-29T04:57:31.159Z,100827.00
2023-03-29T04:59:59.211Z,100826.00
2023-03-29T05:02:27.212Z,100807.00
2023-03-29T05:04:55.044Z,100813.00
2023-03-29T05:07:23.018Z,100820.00
2023-03-29T05:09:50.804Z,100828.00
2023-03-29T05:12:18.611Z,100797.00
2023-03-29T05:14:47.810Z,100802.00
2023-03-29T05:17:15.880Z,100808.00
2023-03-29T05:19:44.541Z,100823.00
2023-03-29T05:22:12.546Z,100812.00
2023-03-29T05:24:40.369Z,100809.00
2023-03-29T05:27:08.251Z,100805.00
2023-03-29T05:29:36.712Z,100786.00
2023-03-29T05:32:07.147Z,100803.00
2023-03-29T05:34:35.315Z,100790.00
2023-03-29T05:37:03.245Z,100797.00
2023-03-29T05:39:31.630Z,100790.00
2023-03-29T05:41:59.963Z,100787.00
2023-03-29T05:44:27.894Z,100774.00
2023-03-29T05:46:57.206Z,100773.00
2023-03-29T05:49:27.202Z,100777.00
2023-03-29T05:51:58.453Z,100756.00
2023-03-29T05:54:26.581Z,100786.00
2023-03-29T05:56:54.551Z,100780.00
2023-03-29T05:59:23.691Z,100761.00
2023-03-29T06:01:52.732Z,100783.00
2023-03-29T06:04:20.857Z,100784.00
2023-03-29T06:06:50.424Z,100767.00
2023-03-29T06:09:19.091Z,100773.00
2023-03-29T06:11:47.709Z,100770.00
2023-03-29T06:14:15.960Z,100773.00
2023-03-29T06:16:45.839Z,100781.00
2023-03-29T06:19:13.759Z,100737.00
2023-03-29T06:21:42.768Z,100759.00
2023-03-29T06:24:12.114Z,100758.00
2023-03-29T06:26:39.961Z,100793.00
2023-03-29T06:29:08.536Z,100762.00
2023-03-29T06:31:37.894Z,100764.00
2023-03-29T06:34:06.118Z,100779.00
2023-03-29T06:36:35.074Z,100802.00
2023-03-29T06:39:06.785Z,100788.00
2023-03-29T06:41:36.235Z,100779.00
2023-03-29T06:44:05.800Z,100795.00
2023-03-29T06:46:34.167Z,100786.00
2023-03-29T06:49:02.304Z,100788.00
2023-03-29T06:51:30.309Z,100776.00
2023-03-29T06:53:58.467Z,100774.00
2023-03-29T06:56:27.088Z,100769.00
2023-03-29T06:58:57.019Z,100795.00
2023-03-29T07:01:25.132Z,100770.00
2023-03-29T07:03:53.861Z,100772.00
2023-03-29T07:06:22.395Z,100757.00
2023-03-29T07:08:52.605Z,100780.00
2023-03-29T07:11:21.248Z,100754.00
2023-03-29T07:13:49.348Z,100755.00
2023-03-29T07:16:20.771Z,100768.00
2023-03-29T07:18:49.298Z,100730.00
2023-03-29T07:21:22.976Z,100785.00
2023-03-29T07:23:52.452Z,100784.00
2023-03-29T07:26:28.286Z,100748.00
2023-03-29T07:28:58.947Z,100778.00
2023-03-29T07:31:33.121Z,100786.00
2023-03-29T07:34:03.719Z,100785.00
2023-03-29T07:36:38.694Z,100759.00
2023-03-29T07:39:10.158Z,100774.00
2023-03-29T07:41:43.845Z,100739.00
2023-03-29T07:44:13.644Z,100774.00
2023-03-29T07:46:43.435Z,100746.00
2023-03-29T07:49:11.509Z,100765.00
2023-03-29T07:51:39.781Z,100762.00
2023-03-29T07:54:08.247Z,100757.00
2023-03-29T07:56:36.837Z,100769.00
2023-03-29T07:59:07.565Z,100751.00
2023-03-29T08:01:35.790Z,100787.00
2023-03-29T08:04:08.179Z,100767.00
2023-03-29T08:06:41.401Z,100797.00
2023-03-29T08:09:30.272Z,100799.00
2023-03-29T08:12:03.551Z,100789.00
2023-03-29T08:14:36.222Z,100788.00
2023-03-29T08:17:07.166Z,100755.00
2023-03-29T08:19:40.102Z,100775.00
2023-03-29T08:22:11.901Z,100783.00
2023-03-29T08:24:48.911Z,100757.00
2023-03-29T08:27:17.921Z,100777.00
2023-03-29T08:29:49.127Z,100782.00
2023-03-29T08:32:22.063Z,100790.00
2023-03-29T08:34:52.326Z,100784.00
2023-03-29T08:37:24.639Z,100754.00
2023-03-29T08:52:47.374Z,100735.00
2023-03-29T08:55:26.044Z,100741.00
2023-03-29T09:01:56.914Z,100771.00
2023-03-29T09:04:33.140Z,100749.00
2023-03-29T09:07:11.690Z,100740.00
2023-03-29T09:09:48.178Z,100787.00
2023-03-29T09:12:38.627Z,100770.00
2023-03-29T09:15:24.505Z,100776.00
2023-03-29T09:18:13.126Z,100772.00
2023-03-29T09:20:55.540Z,100764.00
2023-03-29T09:24:04.291Z,100712.00
2023-03-29T09:26:46.556Z,100782.00
2023-03-29T09:29:29.212Z,100777.00
2023-03-29T09:32:02.874Z,100784.00
2023-03-29T09:34:35.574Z,100779.00
2023-03-29T09:37:09.889Z,100774.00
2023-03-29T09:39:39.394Z,100750.00
2023-03-29T09:42:19.080Z,100723.00
2023-03-29T09:45:25.177Z,100768.00
2023-03-29T09:48:13.687Z,100768.00
2023-03-29T09:50:44.686Z,100748.00
2023-03-29T09:53:21.720Z,100774.00
2023-03-29T09:55:53.822Z,100731.00
2023-03-29T09:58:32.032Z,100692.00
2023-03-29T10:01:14.353Z,100728.00
2023-03-29T10:03:59.353Z,100713.00
2023-03-29T10:06:32.342Z,100715.00
2023-03-29T10:09:19.898Z,100743.00
2023-03-29T10:12:01.281Z,100746.00
2023-03-29T10:14:53.925Z,100738.00
2023-03-29T10:25:42.818Z,100745.00
2023-03-29T10:28:17.498Z,100746.00
2023-03-29T10:30:53.356Z,100745.00
2023-03-29T10:33:24.192Z,100738.00
2023-03-29T10:35:52.651Z,100746.00
2023-03-29T10:38:23.950Z,100753.00
2023-03-29T10:40:53.554Z,100742.00
2023-03-29T10:43:27.240Z,100733.00
2023-03-29T10:45:58.218Z,100735.00
2023-03-29T10:48:29.588Z,100741.00
2023-03-29T10:51:01.314Z,100728.00
2023-03-29T10:53:31.720Z,100738.00
2023-03-29T10:56:12.777Z,100729.00
2023-03-29T10:58:57.218Z,100721.00
2023-03-29T11:01:33.174Z,100709.00
2023-03-29T11:04:09.421Z,100710.00
2023-03-29T11:06:43.575Z,100709.00
2023-03-29T11:09:24.551Z,100691.00
2023-03-29T11:12:15.163Z,100705.00
2023-03-29T11:14:56.513Z,100712.00
2023-03-29T11:17:42.782Z,100698.00
2023-03-29T11:20:28.019Z,100693.00
2023-03-29T11:23:07.542Z,100690.00
2023-03-29T11:25:48.099Z,100688.00
2023-03-29T11:28:22.000Z,100699.00
2023-03-29T11:30:55.121Z,100701.00
2023-03-29T11:33:38.073Z,100701.00
2023-03-29T11:36:16.527Z,100695.00
2023-03-29T11:38:55.643Z,100697.00
2023-03-29T11:41:27.842Z,100699.00
2023-03-29T11:44:01.826Z,100712.00
2023-03-29T11:46:32.424Z,100701.00
2023-03-29T11:49:06.001Z,100698.00
2023-03-29T11:51:39.759Z,100700.00
2023-03-29T11:54:18.158Z,100695.00
2023-03-29T11:56:49.358Z,100703.00
2023-03-29T11:59:23.601Z,100693.00
2023-03-29T12:01:54.811Z,100694.00
2023-03-29T12:04:28.731Z,100683.00
2023-03-29T12:07:06.211Z,100680.00
2023-03-29T12:09:38.816Z,100671.00
2023-03-29T12:12:11.666Z,100682.00
2023-03-29T12:14:50.333Z,100669.00
2023-03-29T12:17:22.770Z,100674.00
2023-03-29T12:20:03.733Z,100670.00
2023-03-29T12:22:31.602Z,100669.00
2023-03-29T12:25:01.336Z,100666.00
2023-03-29T12:27:31.336Z,100660.00
2023-03-29T12:30:28.521Z,100650.00
2023-03-29T12:33:22.259Z,100665.00
2023-03-29T12:36:04.788Z,100653.00
2023-03-29T12:38:33.954Z,100651.00
2023-03-29T12:41:05.123Z,100648.00
2023-03-29T12:43:35.760Z,100647.00
2023-03-29T12:46:08.366Z,100647.00
2023-03-29T12:48:38.795Z,100647.00
2023-03-29T12:51:12.666Z,100654.00
2023-03-29T12:53:43.604Z,100659.00
2023-03-29T12:56:15.986Z,100658.00
2023-03-29T12:58:53.259Z,100648.00
2023-03-29T13:01:31.057Z,100657.00
2023-03-29T13:04:15.765Z,100651.00
2023-03-29T13:07:05.877Z,100648.00
2023-03-29T13:09:36.735Z,100651.00
2023-03-29T13:12:14.554Z,100652.00
2023-03-29T13:14:45.155Z,100651.00
2023-03-29T13:17:22.979Z,100657.00
2023-03-29T13:20:02.890Z,100661.00
2023-03-29T13:22:39.984Z,100651.00
2023-03-29T13:25:24.766Z,100657.00
2023-03-29T13:27:58.228Z,100652.00
2023-03-29T13:30:36.638Z,100653.00
2023-03-29T13:33:20.887Z,100653.00
2023-03-29T13:35:54.813Z,100652.00
2023-03-29T13:38:28.567Z,100637.00
2023-03-29T13:41:02.337Z,100637.00
2023-03-29T13:43:36.490Z,100627.00
2023-03-29T13:46:23.968Z,100637.00
2023-03-29T13:49:07.578Z,100640.00
2023-03-29T13:51:40.107Z,100639.00
2023-03-29T13:54:16.564Z,100637.00
2023-03-29T13:56:56.414Z,100642.00
2023-03-29T13:59:31.801Z,100636.00
2023-03-29T14:02:03.917Z,100639.00
2023-03-29T14:04:37.712Z,100618.00
2023-03-29T14:07:08.147Z,100623.00
2023-03-29T14:09:43.023Z,100615.00
2023-03-29T14:12:13.710Z,100618.00
2023-03-29T14:14:57.680Z,100606.00
2023-03-29T14:17:26.907Z,100614.00
2023-03-29T14:19:58.867Z,100613.00
2023-03-29T14:22:31.535Z,100617.00
2023-03-29T14:25:04.785Z,100615.00
2023-03-29T14:27:33.612Z,100618.00
2023-03-29T14:30:01.506Z,100597.00
2023-03-29T14:32:31.211Z,100586.00
2023-03-29T14:34:59.159Z,100594.00
2023-03-29T14:37:28.893Z,100602.00
2023-03-29T14:39:56.948Z,100600.00
2023-03-29T14:42:28.425Z,100604.00
2023-03-29T14:44:59.744Z,100598.00
2023-03-29T14:47:29.600Z,100599.00
2023-03-29T14:50:00.597Z,100593.00
2023-03-29T14:52:29.360Z,100586.00
2023-03-29T14:54:59.331Z,100581.00
2023-03-29T14:57:33.339Z,100589.00
2023-03-29T15:00:04.604Z,100590.00
2023-03-29T15:02:34.812Z,100589.00
2023-03-29T15:05:04.598Z,100588.00
2023-03-29T15:07:34.593Z,100582.00
2023-03-29T15:10:05.631Z,100593.00
2023-03-29T15:12:36.724Z,100588.00
2023-03-29T15:15:07.644Z,100576.00
2023-03-29T15:17:50.441Z,100580.00
2023-03-29T15:20:23.723Z,100582.00
2023-03-29T15:22:55.502Z,100573.00
2023-03-29T15:25:23.185Z,100564.00
2023-03-29T15:27:58.930Z,100567.00
2023-03-29T15:30:35.428Z,100558.00
2023-03-29T15:33:21.842Z,100562.00
2023-03-29T15:35:52.261Z,100556.00
2023-03-29T15:38:23.365Z,100550.00
2023-03-29T15:40:55.686Z,100546.00
2023-03-29T15:43:25.697Z,100537.00
2023-03-29T15:45:53.458Z,100543.00
2023-03-29T15:48:24.181Z,100537.00
2023-03-29T15:50:53.030Z,100534.00
2023-03-29T15:53:21.780Z,100534.00
2023-03-29T15:55:52.344Z,100527.00
2023-03-29T15:58:26.986Z,100528.00
2023-03-29T16:00:59.201Z,100522.00
2023-03-29T16:03:28.497Z,100521.00
2023-03-29T16:05:57.354Z,100517.00
2023-03-29T16:08:25.511Z,100514.00
2023-03-29T16:10:53.377Z,100513.00
2023-03-29T16:13:21.041Z,100520.00
2023-03-29T16:15:50.138Z,100516.00
2023-03-29T16:18:17.860Z,100524.00
2023-03-29T16:20:45.822Z,100514.00
2023-03-29T16:23:13.526Z,100520.00
2023-03-29T16:25:41.527Z,100519.00
2023-03-29T16:28:10.026Z,100508.00
2023-03-29T16:30:39.031Z,100509.00
2023-03-29T16:33:08.585Z,100505.00
2023-03-29T16:35:39.825Z,100506.00
2023-03-29T16:40:46.808Z,100465.00
2023-03-29T16:43:32.901Z,100456.00
2023-03-29T16:46:10.730Z,100479.00
2023-03-29T16:48:55.482Z,100493.00
2023-03-29T16:51:33.256Z,100502.00
2023-03-29T16:54:11.186Z,100517.00
2023-03-29T16:56:52.301Z,100510.00
2023-03-29T16:59:35.001Z,100515.00
2023-03-29T17:02:22.833Z,100491.00
2023-03-29T17:08:02.292Z,100483.00
2023-03-29T17:10:44.585Z,100459.00
2023-03-29T17:13:24.080Z,100483.00
2023-03-29T17:16:03.554Z,100498.00
2023-03-29T17:21:44.778Z,100468.00
2023-03-29T17:24:47.620Z,100490.00
2023-03-29T17:27:24.691Z,100496.00
2023-03-29T17:36:10.150Z,100454.00
2023-03-29T17:42:35.909Z,100474.00
2023-03-29T17:45:23.799Z,100461.00
2023-03-29T17:47:51.581Z,100457.00
2023-03-29T17:50:19.678Z,100454.00
2023-03-29T17:52:47.410Z,100452.00
2023-03-29T17:55:16.667Z,100445.00
2023-03-29T17:57:44.695Z,100457.00
2023-03-29T18:00:15.220Z,100450.00
2023-03-29T18:05:46.464Z,100436.00
2023-03-29T18:08:15.983Z,100463.00
2023-03-29T18:10:54.440Z,100420.00
2023-03-29T18:13:33.320Z,100452.00
2023-03-29T18:16:14.670Z,100424.00
2023-03-29T18:18:58.717Z,100455.00
2023-03-29T18:21:41.034Z,100464.00
2023-03-29T18:24:19.874Z,100459.00
2023-03-29T18:27:04.713Z,100428.00
2023-03-29T18:29:38.900Z,100458.00
2023-03-29T18:32:07.871Z,100459.00
2023-03-29T18:34:39.437Z,100415.00
2023-03-29T18:37:09.755Z,100421.00
2023-03-29T18:39:43.081Z,100449.00
2023-03-29T18:42:23.907Z,100406.00
2023-03-29T18:44:52.731Z,100457.00
2023-03-29T18:47:27.160Z,100418.00
2023-03-29T18:49:55.599Z,100425.00
2023-03-29T18:52:29.244Z,100433.00
2023-03-29T18:55:04.396Z,100436.00
2023-03-29T18:57:37.499Z,100435.00
2023-03-29T19:00:12.780Z,100448.00
2023-03-29T19:02:44.028Z,100454.00
2023-03-29T19:05:13.976Z,100455.00
2023-03-29T19:07:45.156Z,100430.00
2023-03-29T19:10:16.754Z,100448.00
2023-03-29T19:12:50.040Z,100456.00
2023-03-29T19:15:18.486Z,100449.00
2023-03-29T19:17:48.545Z,100457.00
2023-03-29T19:20:20.073Z,100437.00
2023-03-29T19:22:51.655Z,100438.00
2023-03-29T19:25:20.115Z,100452.00
2023-03-29T19:27:51.791Z,100429.00
2023-03-29T19:30:23.464Z,100429.00
2023-03-29T19:32:51.871Z,100378.00
2023-03-29T19:35:20.929Z,100389.00
2023-03-29T19:37:49.074Z,100385.00
2023-03-29T19:40:54.807Z,100410.00
2023-03-29T19:43:44.455Z,100407.00
2023-03-29T19:47:51.307Z,100382.00
2023-03-29T19:53:28.953Z,100386.00
2023-03-29T19:56:08.004Z,100387.00
2023-03-29T20:01:53.417Z,100384.00
2023-03-29T20:04:30.447Z,100356.00
2023-03-29T20:07:58.354Z,100386.00
2023-03-29T20:14:30.662Z,100375.00
2023-03-29T20:21:12.419Z,100354.00
2023-03-29T20:24:02.035Z,100354.00
2023-03-29T20:27:20.435Z,100297.00
2023-03-29T20:37:16.570Z,100304.00
2023-03-29T20:44:36.929Z,100287.00
2023-03-29T20:48:26.638Z,100273.00
2023-03-29T20:50:55.501Z,100269.00
2023-03-29T20:53:23.501Z,100288.00
2023-03-29T20:55:52.301Z,100297.00
2023-03-29T20:58:20.644Z,100285.00
2023-03-29T21:00:48.916Z,100287.00
2023-03-29T21:03:18.604Z,100298.00
2023-03-29T21:05:46.459Z,100288.00
2023-03-29T21:08:18.850Z,100296.00
2023-03-29T21:10:47.797Z,100276.00
2023-03-29T21:13:15.840Z,100287.00
2023-03-29T21:15:43.932Z,100240.00
2023-03-29T21:18:12.040Z,100277.00
2023-03-29T21:20:48.434Z,100276.00
2023-03-29T21:23:16.344Z,100244.00
2023-03-29T21:25:44.438Z,100264.00
2023-03-29T21:28:13.301Z,100262.00
2023-03-29T21:30:41.249Z,100218.00
2023-03-29T21:33:09.083Z,100254.00
2023-03-29T21:35:37.146Z,100247.00
2023-03-29T21:38:06.921Z,100223.00
2023-03-29T21:40:36.947Z,100244.00
2023-03-29T21:43:04.873Z,100268.00
2023-03-29T21:45:32.895Z,100252.00
2023-03-29T21:48:00.902Z,100233.00
2023-03-29T21:50:33.762Z,100244.00
2023-03-29T21:53:04.303Z,100242.00
2023-03-29T21:55:51.511Z,100240.00
2023-03-29T21:58:33.557Z,100223.00
2023-03-29T22:01:03.677Z,100242.00
2023-03-29T22:03:32.252Z,100244.00
2023-03-29T22:06:04.019Z,100231.00
2023-03-29T22:08:33.163Z,100234.00
2023-03-29T22:11:08.630Z,100219.00
2023-03-29T22:13:37.143Z,100215.00
2023-03-29T22:16:06.942Z,100222.00
2023-03-29T22:18:43.732Z,100226.00
2023-03-29T22:21:15.144Z,100218.00
2023-03-29T22:23:44.062Z,100191.00
2023-03-29T22:26:15.327Z,100184.00
2023-03-29T22:28:43.728Z,100168.00
2023-03-29T22:31:13.546Z,100156.00
2023-03-29T22:33:42.638Z,100183.00
2023-03-29T22:36:15.960Z,100160.00
2023-03-29T22:38:48.128Z,100180.00
2023-03-29T22:41:18.477Z,100191.00
2023-03-29T22:43:51.655Z,100185.00
2023-03-29T22:46:26.824Z,100157.00
2023-03-29T22:48:57.396Z,100155.00
2023-03-29T22:51:32.047Z,100121.00
2023-03-29T22:54:00.134Z,100093.00
2023-03-29T22:56:30.642Z,100149.00
2023-03-29T22:59:09.447Z,100142.00
2023-03-29T23:01:38.054Z,100144.00
2023-03-29T23:04:11.255Z,100133.00
2023-03-29T23:06:39.432Z,100131.00
2023-03-29T23:09:19.159Z,100135.00
2023-03-29T23:11:53.164Z,100101.00
2023-03-29T23:14:22.900Z,100104.00
2023-03-29T23:16:59.249Z,100081.00
2023-03-29T23:19:35.294Z,100118.00
2023-03-29T23:22:05.873Z,100108.00
2023-03-29T23:24:34.197Z,100115.00
2023-03-29T23:27:06.320Z,100090.00
2023-03-29T23:29:38.758Z,100100.00
2023-03-29T23:32:07.004Z,100100.00
2023-03-29T23:34:38.072Z,100099.00
2023-03-29T23:37:17.922Z,100101.00
2023-03-29T23:39:51.297Z,100092.00
2023-03-29T23:42:21.198Z,100076.00
2023-03-29T23:44:50.013Z,100079.00
2023-03-29T23:47:18.115Z,100086.00
2023-03-29T23:49:47.016Z,100041.00
2023-03-29T23:52:15.156Z,100065.00
2023-03-29T23:54:43.238Z,100044.00
2023-03-29T23:57:11.638Z,100054.00
2023-03-29T23:59:41.013Z,100062.00
